sensor_id;sensor_type;location;lat;lon;timestamp;pressure;altitude;pressure_sealevel;temperature;humidity
72124;BME280;63818;37.134;-8.548;2023-11-21T00:01:08;101937.2;;;17.2;80.6
72124;BME280;63818;37.134;-8.548;2023-11-21T00:06:08;101924.6;;;17.2;80.1
72124;BME280;63818;37.134;-8.548;2023-11-21T00:10:55;101910.6;;;17.2;80.6
72124;BME280;63818;37.134;-8.548;2023-11-21T00:15:53;101923.2;;;17.2;80.3
72124;BME280;63818;37.134;-8.548;2023-11-21T00:20:41;101927.0;;;17.2;80.7
72124;BME280;63818;37.134;-8.548;2023-11-21T00:25:29;101933.4;;;17.2;80.3
72124;BME280;63818;37.134;-8.548;2023-11-21T00:30:19;101938.4;;;17.1;80.8
72124;BME280;63818;37.134;-8.548;2023-11-21T00:35:23;101933.8;;;17.1;80.8
72124;BME280;63818;37.134;-8.548;2023-11-21T00:40:12;101933.6;;;17.1;80.9
72124;BME280;63818;37.134;-8.548;2023-11-21T00:45:10;101938.4;;;17.0;80.9
72124;BME280;63818;37.134;-8.548;2023-11-21T00:49:58;101930.1;;;17.0;80.9
72124;BME280;63818;37.134;-8.548;2023-11-21T00:59:39;101910.6;;;17.0;80.8
72124;BME280;63818;37.134;-8.548;2023-11-21T01:04:27;101908.4;;;16.9;80.4
72124;BME280;63818;37.134;-8.548;2023-11-21T01:09:15;101902.0;;;16.9;80.9
72124;BME280;63818;37.134;-8.548;2023-11-21T01:14:03;101897.5;;;16.8;81.3
72124;BME280;63818;37.134;-8.548;2023-11-21T01:18:52;101899.6;;;16.9;81.0
72124;BME280;63818;37.134;-8.548;2023-11-21T01:23:40;101905.2;;;16.8;80.8
72124;BME280;63818;37.134;-8.548;2023-11-21T01:28:32;101896.6;;;16.7;80.2
72124;BME280;63818;37.134;-8.548;2023-11-21T01:33:20;101882.8;;;16.7;80.5
72124;BME280;63818;37.134;-8.548;2023-11-21T01:38:08;101872.9;;;16.6;81.4
72124;BME280;63818;37.134;-8.548;2023-11-21T01:48:12;101878.9;;;16.7;81.3
72124;BME280;63818;37.134;-8.548;2023-11-21T01:53:03;101889.4;;;16.8;81.6
72124;BME280;63818;37.134;-8.548;2023-11-21T01:57:53;101897.4;;;16.7;81.4
72124;BME280;63818;37.134;-8.548;2023-11-21T02:02:42;101889.2;;;16.7;82.4
72124;BME280;63818;37.134;-8.548;2023-11-21T02:07:30;101886.0;;;16.7;81.2
72124;BME280;63818;37.134;-8.548;2023-11-21T02:12:25;101877.6;;;16.7;81.3
72124;BME280;63818;37.134;-8.548;2023-11-21T02:17:13;101889.7;;;16.6;80.8
72124;BME280;63818;37.134;-8.548;2023-11-21T02:22:13;101886.0;;;16.6;80.9
72124;BME280;63818;37.134;-8.548;2023-11-21T02:27:04;101875.0;;;16.6;81.0
72124;BME280;63818;37.134;-8.548;2023-11-21T02:31:53;101888.7;;;16.5;80.8
72124;BME280;63818;37.134;-8.548;2023-11-21T02:36:58;101883.8;;;16.5;80.7
72124;BME280;63818;37.134;-8.548;2023-11-21T02:41:48;101878.6;;;16.5;80.7
72124;BME280;63818;37.134;-8.548;2023-11-21T02:46:37;101884.1;;;16.5;80.9
72124;BME280;63818;37.134;-8.548;2023-11-21T02:51:25;101883.8;;;16.5;81.0
72124;BME280;63818;37.134;-8.548;2023-11-21T02:56:19;101880.2;;;16.5;80.5
72124;BME280;63818;37.134;-8.548;2023-11-21T03:01:08;101891.9;;;16.5;80.9
72124;BME280;63818;37.134;-8.548;2023-11-21T03:10:49;101893.6;;;16.5;82.0
72124;BME280;63818;37.134;-8.548;2023-11-21T03:15:37;101898.6;;;16.6;81.9
72124;BME280;63818;37.134;-8.548;2023-11-21T03:20:25;101888.5;;;16.6;81.9
72124;BME280;63818;37.134;-8.548;2023-11-21T03:25:20;101903.1;;;16.5;81.0
72124;BME280;63818;37.134;-8.548;2023-11-21T03:30:09;101904.6;;;16.5;80.5
72124;BME280;63818;37.134;-8.548;2023-11-21T03:34:58;101893.2;;;16.4;80.0
72124;BME280;63818;37.134;-8.548;2023-11-21T03:39:46;101896.2;;;16.4;80.6
72124;BME280;63818;37.134;-8.548;2023-11-21T03:44:36;101906.2;;;16.4;80.6
72124;BME280;63818;37.134;-8.548;2023-11-21T03:49:24;101902.7;;;16.4;80.3
72124;BME280;63818;37.134;-8.548;2023-11-21T03:59:18;101900.8;;;16.3;80.6
72124;BME280;63818;37.134;-8.548;2023-11-21T04:04:09;101916.8;;;16.3;80.9
72124;BME280;63818;37.134;-8.548;2023-11-21T04:08:57;101916.5;;;16.3;80.5
72124;BME280;63818;37.134;-8.548;2023-11-21T04:13:51;101913.2;;;16.3;80.9
72124;BME280;63818;37.134;-8.548;2023-11-21T04:18:41;101912.1;;;16.3;81.1
72124;BME280;63818;37.134;-8.548;2023-11-21T04:23:29;101923.8;;;16.2;80.3
72124;BME280;63818;37.134;-8.548;2023-11-21T04:28:18;101921.9;;;16.2;80.7
72124;BME280;63818;37.134;-8.548;2023-11-21T04:37:59;101917.5;;;16.1;80.8
72124;BME280;63818;37.134;-8.548;2023-11-21T04:42:47;101924.6;;;16.2;81.4
72124;BME280;63818;37.134;-8.548;2023-11-21T04:47:45;101931.9;;;16.3;81.1
72124;BME280;63818;37.134;-8.548;2023-11-21T04:52:33;101933.8;;;16.3;80.9
72124;BME280;63818;37.134;-8.548;2023-11-21T04:57:28;101924.4;;;16.3;80.7
72124;BME280;63818;37.134;-8.548;2023-11-21T05:02:16;101923.1;;;16.4;81.9
72124;BME280;63818;37.134;-8.548;2023-11-21T05:07:07;101928.6;;;16.4;82.0
72124;BME280;63818;37.134;-8.548;2023-11-21T05:11:55;101920.6;;;16.4;81.2
72124;BME280;63818;37.134;-8.548;2023-11-21T05:16:43;101924.3;;;16.4;81.4
72124;BME280;63818;37.134;-8.548;2023-11-21T05:26:24;101910.1;;;16.4;80.7
72124;BME280;63818;37.134;-8.548;2023-11-21T05:31:14;101928.6;;;16.3;80.0
72124;BME280;63818;37.134;-8.548;2023-11-21T05:36:02;101935.2;;;16.2;79.9
72124;BME280;63818;37.134;-8.548;2023-11-21T05:40:51;101935.1;;;16.2;80.3
72124;BME280;63818;37.134;-8.548;2023-11-21T05:45:38;101929.1;;;16.1;80.3
72124;BME280;63818;37.134;-8.548;2023-11-21T05:50:27;101944.6;;;16.1;80.3
72124;BME280;63818;37.134;-8.548;2023-11-21T05:55:15;101941.2;;;16.0;80.9
72124;BME280;63818;37.134;-8.548;2023-11-21T06:00:06;101942.6;;;16.0;80.1
72124;BME280;63818;37.134;-8.548;2023-11-21T06:04:54;101937.4;;;16.0;80.3
72124;BME280;63818;37.134;-8.548;2023-11-21T06:09:50;101939.6;;;16.0;80.0
72124;BME280;63818;37.134;-8.548;2023-11-21T06:14:38;101944.4;;;16.0;81.0
72124;BME280;63818;37.134;-8.548;2023-11-21T06:19:51;101944.3;;;16.1;80.8
72124;BME280;63818;37.134;-8.548;2023-11-21T06:24:39;101938.2;;;16.1;81.0
72124;BME280;63818;37.134;-8.548;2023-11-21T06:29:29;101950.5;;;16.2;81.0
72124;BME280;63818;37.134;-8.548;2023-11-21T06:34:18;101956.0;;;16.2;80.8
72124;BME280;63818;37.134;-8.548;2023-11-21T06:39:06;101960.0;;;16.2;80.6
72124;BME280;63818;37.134;-8.548;2023-11-21T06:43:56;101960.0;;;16.2;80.5
72124;BME280;63818;37.134;-8.548;2023-11-21T06:48:48;101954.8;;;16.2;81.1
72124;BME280;63818;37.134;-8.548;2023-11-21T06:53:37;101962.8;;;16.1;80.4
72124;BME280;63818;37.134;-8.548;2023-11-21T06:58:25;101961.5;;;16.1;80.6
72124;BME280;63818;37.134;-8.548;2023-11-21T07:03:13;101959.6;;;16.0;80.7
72124;BME280;63818;37.134;-8.548;2023-11-21T07:08:19;101959.2;;;16.0;80.6
72124;BME280;63818;37.134;-8.548;2023-11-21T07:13:07;101959.5;;;15.9;80.9
72124;BME280;63818;37.134;-8.548;2023-11-21T07:17:55;101965.7;;;15.9;81.1
72124;BME280;63818;37.134;-8.548;2023-11-21T07:22:48;101982.8;;;15.9;81.1
72124;BME280;63818;37.134;-8.548;2023-11-21T07:27:38;101986.8;;;15.9;80.9
72124;BME280;63818;37.134;-8.548;2023-11-21T07:32:27;101979.8;;;15.9;80.6
72124;BME280;63818;37.134;-8.548;2023-11-21T07:37:24;101984.6;;;15.9;80.4
72124;BME280;63818;37.134;-8.548;2023-11-21T07:42:12;101991.4;;;15.9;80.0
72124;BME280;63818;37.134;-8.548;2023-11-21T07:47:00;102009.9;;;15.9;79.4
72124;BME280;63818;37.134;-8.548;2023-11-21T07:57:28;102011.7;;;15.9;79.5
72124;BME280;63818;37.134;-8.548;2023-11-21T08:02:16;102011.7;;;15.9;78.8
72124;BME280;63818;37.134;-8.548;2023-11-21T08:07:05;102022.8;;;15.9;79.1
72124;BME280;63818;37.134;-8.548;2023-11-21T08:11:59;102030.8;;;15.9;79.1
72124;BME280;63818;37.134;-8.548;2023-11-21T08:16:47;102034.8;;;15.9;79.6
72124;BME280;63818;37.134;-8.548;2023-11-21T08:21:35;102031.1;;;15.9;80.1
72124;BME280;63818;37.134;-8.548;2023-11-21T08:26:38;102046.2;;;16.0;79.5
72124;BME280;63818;37.134;-8.548;2023-11-21T08:31:26;102043.9;;;16.0;79.5
72124;BME280;63818;37.134;-8.548;2023-11-21T08:36:17;102034.1;;;16.1;78.5
72124;BME280;63818;37.134;-8.548;2023-11-21T08:41:19;102026.7;;;16.1;77.1
72124;BME280;63818;37.134;-8.548;2023-11-21T08:46:07;102035.5;;;16.1;76.8
72124;BME280;63818;37.134;-8.548;2023-11-21T08:50:55;102041.1;;;16.1;77.4
72124;BME280;63818;37.134;-8.548;2023-11-21T08:55:46;102050.1;;;16.2;77.8
72124;BME280;63818;37.134;-8.548;2023-11-21T09:00:35;102061.1;;;16.2;77.8
72124;BME280;63818;37.134;-8.548;2023-11-21T09:05:23;102037.8;;;16.2;77.1
72124;BME280;63818;37.134;-8.548;2023-11-21T09:10:14;102051.2;;;16.2;76.5
72124;BME280;63818;37.134;-8.548;2023-11-21T09:15:02;102079.0;;;16.3;76.8
72124;BME280;63818;37.134;-8.548;2023-11-21T09:20:02;102079.0;;;16.3;76.8
72124;BME280;63818;37.134;-8.548;2023-11-21T09:24:51;102079.5;;;16.3;77.7
72124;BME280;63818;37.134;-8.548;2023-11-21T09:29:39;102094.0;;;16.4;77.7
72124;BME280;63818;37.134;-8.548;2023-11-21T09:34:40;102073.1;;;16.4;78.0
72124;BME280;63818;37.134;-8.548;2023-11-21T09:39:28;102070.3;;;16.4;77.9
72124;BME280;63818;37.134;-8.548;2023-11-21T09:44:18;102073.6;;;16.5;77.6
72124;BME280;63818;37.134;-8.548;2023-11-21T09:49:08;102060.4;;;16.5;77.4
72124;BME280;63818;37.134;-8.548;2023-11-21T09:54:03;102067.1;;;16.5;77.7
72124;BME280;63818;37.134;-8.548;2023-11-21T09:58:53;102059.5;;;16.5;78.0
72124;BME280;63818;37.134;-8.548;2023-11-21T10:03:46;102051.6;;;16.5;77.8
72124;BME280;63818;37.134;-8.548;2023-11-21T10:08:35;102045.8;;;16.5;77.4
72124;BME280;63818;37.134;-8.548;2023-11-21T10:13:24;102035.7;;;16.5;77.2
72124;BME280;63818;37.134;-8.548;2023-11-21T10:18:15;102042.1;;;16.6;76.6
72124;BME280;63818;37.134;-8.548;2023-11-21T10:23:05;102044.3;;;16.6;75.1
72124;BME280;63818;37.134;-8.548;2023-11-21T10:27:57;102034.1;;;16.6;75.0
72124;BME280;63818;37.134;-8.548;2023-11-21T10:38:01;102023.3;;;16.6;75.1
72124;BME280;63818;37.134;-8.548;2023-11-21T10:43:08;102023.6;;;16.6;74.7
72124;BME280;63818;37.134;-8.548;2023-11-21T10:47:56;102017.2;;;16.6;74.4
72124;BME280;63818;37.134;-8.548;2023-11-21T10:53:05;102022.4;;;16.7;74.3
72124;BME280;63818;37.134;-8.548;2023-11-21T10:57:55;102019.8;;;16.7;74.2
72124;BME280;63818;37.134;-8.548;2023-11-21T11:02:53;102008.0;;;16.8;74.3
72124;BME280;63818;37.134;-8.548;2023-11-21T11:07:42;102001.4;;;16.8;74.1
72124;BME280;63818;37.134;-8.548;2023-11-21T11:12:31;101995.7;;;16.8;73.6
72124;BME280;63818;37.134;-8.548;2023-11-21T11:17:25;101987.1;;;16.8;73.9
72124;BME280;63818;37.134;-8.548;2023-11-21T11:22:20;101979.3;;;16.8;74.0
72124;BME280;63818;37.134;-8.548;2023-11-21T11:27:21;101973.5;;;16.8;73.8
72124;BME280;63818;37.134;-8.548;2023-11-21T11:32:23;101961.7;;;16.9;73.6
72124;BME280;63818;37.134;-8.548;2023-11-21T11:37:42;101952.9;;;16.9;73.1
72124;BME280;63818;37.134;-8.548;2023-11-21T11:42:32;101926.2;;;16.9;72.0
72124;BME280;63818;37.134;-8.548;2023-11-21T11:47:24;101921.1;;;16.9;71.8
72124;BME280;63818;37.134;-8.548;2023-11-21T11:52:37;101921.0;;;17.0;71.8
72124;BME280;63818;37.134;-8.548;2023-11-21T11:57:26;101912.7;;;17.0;70.9
72124;BME280;63818;37.134;-8.548;2023-11-21T12:02:52;101920.5;;;17.1;73.3
72124;BME280;63818;37.134;-8.548;2023-11-21T12:07:43;101913.0;;;17.2;73.0
72124;BME280;63818;37.134;-8.548;2023-11-21T12:12:31;101899.4;;;17.2;72.5
72124;BME280;63818;37.134;-8.548;2023-11-21T12:17:19;101890.0;;;17.2;71.1
72124;BME280;63818;37.134;-8.548;2023-11-21T12:27:00;101888.3;;;17.2;71.8
72124;BME280;63818;37.134;-8.548;2023-11-21T12:31:51;101860.7;;;17.2;71.0
72124;BME280;63818;37.134;-8.548;2023-11-21T12:36:39;101858.3;;;17.2;70.7
72124;BME280;63818;37.134;-8.548;2023-11-21T12:41:30;101859.9;;;17.2;70.5
72124;BME280;63818;37.134;-8.548;2023-11-21T12:46:18;101841.0;;;17.2;69.8
72124;BME280;63818;37.134;-8.548;2023-11-21T12:51:08;101834.2;;;17.3;70.0
72124;BME280;63818;37.134;-8.548;2023-11-21T12:56:05;101828.1;;;17.3;69.1
72124;BME280;63818;37.134;-8.548;2023-11-21T13:00:53;101820.9;;;17.3;67.9
72124;BME280;63818;37.134;-8.548;2023-11-21T13:05:45;101818.6;;;17.4;68.7
72124;BME280;63818;37.134;-8.548;2023-11-21T13:15:28;101816.0;;;17.6;70.2
72124;BME280;63818;37.134;-8.548;2023-11-21T13:20:16;101813.1;;;17.6;69.4
72124;BME280;63818;37.134;-8.548;2023-11-21T13:25:04;101792.3;;;17.7;67.6
72124;BME280;63818;37.134;-8.548;2023-11-21T13:29:53;101781.8;;;17.8;68.5
72124;BME280;63818;37.134;-8.548;2023-11-21T13:34:40;101789.8;;;17.9;67.7
72124;BME280;63818;37.134;-8.548;2023-11-21T13:39:33;101780.0;;;18.0;66.4
72124;BME280;63818;37.134;-8.548;2023-11-21T13:44:22;101777.4;;;18.1;68.4
72124;BME280;63818;37.134;-8.548;2023-11-21T13:49:14;101775.0;;;18.2;68.6
72124;BME280;63818;37.134;-8.548;2023-11-21T13:58:55;101762.0;;;18.5;66.1
72124;BME280;63818;37.134;-8.548;2023-11-21T14:03:50;101761.3;;;18.7;65.6
72124;BME280;63818;37.134;-8.548;2023-11-21T14:08:40;101743.7;;;18.9;64.4
72124;BME280;63818;37.134;-8.548;2023-11-21T14:13:28;101738.2;;;19.1;63.5
72124;BME280;63818;37.134;-8.548;2023-11-21T14:18:29;101735.8;;;19.4;62.6
72124;BME280;63818;37.134;-8.548;2023-11-21T14:23:17;101720.5;;;19.8;61.0
72124;BME280;63818;37.134;-8.548;2023-11-21T14:28:16;101707.4;;;20.4;57.7
72124;BME280;63818;37.134;-8.548;2023-11-21T14:33:04;101709.9;;;21.3;55.5
72124;BME280;63818;37.134;-8.548;2023-11-21T14:37:52;101698.0;;;22.3;52.1
72124;BME280;63818;37.134;-8.548;2023-11-21T14:42:40;101689.9;;;23.0;49.4
72124;BME280;63818;37.134;-8.548;2023-11-21T14:47:28;101687.9;;;23.5;47.5
72124;BME280;63818;37.134;-8.548;2023-11-21T14:52:16;101681.3;;;23.9;45.4
72124;BME280;63818;37.134;-8.548;2023-11-21T14:57:04;101680.9;;;24.2;44.6
72124;BME280;63818;37.134;-8.548;2023-11-21T15:01:52;101684.2;;;24.3;43.1
72124;BME280;63818;37.134;-8.548;2023-11-21T15:07:01;101669.0;;;24.4;42.9
72124;BME280;63818;37.134;-8.548;2023-11-21T15:11:48;101669.5;;;24.5;42.5
72124;BME280;63818;37.134;-8.548;2023-11-21T15:21:28;101684.0;;;24.1;42.9
72124;BME280;63818;37.134;-8.548;2023-11-21T15:26:23;101694.0;;;23.1;44.9
72124;BME280;63818;37.134;-8.548;2023-11-21T15:31:11;101688.7;;;22.6;46.3
72124;BME280;63818;37.134;-8.548;2023-11-21T15:36:27;101697.0;;;22.2;47.5
72124;BME280;63818;37.134;-8.548;2023-11-21T15:41:17;101708.8;;;21.8;48.2
72124;BME280;63818;37.134;-8.548;2023-11-21T15:46:05;101701.5;;;21.7;48.9
72124;BME280;63818;37.134;-8.548;2023-11-21T15:50:56;101706.2;;;21.5;49.2
72124;BME280;63818;37.134;-8.548;2023-11-21T15:55:44;101698.2;;;21.4;49.8
72124;BME280;63818;37.134;-8.548;2023-11-21T16:00:45;101702.7;;;21.4;50.1
72124;BME280;63818;37.134;-8.548;2023-11-21T16:05:33;101691.2;;;21.3;50.1
72124;BME280;63818;37.134;-8.548;2023-11-21T16:10:21;101703.6;;;21.1;50.1
72124;BME280;63818;37.134;-8.548;2023-11-21T16:15:59;101694.9;;;20.7;46.3
72124;BME280;63818;37.134;-8.548;2023-11-21T16:20:47;101689.6;;;20.4;43.8
72124;BME280;63818;37.134;-8.548;2023-11-21T16:25:38;101699.3;;;20.2;44.0
72124;BME280;63818;37.134;-8.548;2023-11-21T16:30:26;101712.3;;;20.1;44.2
72124;BME280;63818;37.134;-8.548;2023-11-21T16:35:14;101736.7;;;19.9;44.6
72124;BME280;63818;37.134;-8.548;2023-11-21T16:40:02;101743.8;;;19.8;45.6
72124;BME280;63818;37.134;-8.548;2023-11-21T16:44:50;101760.8;;;19.7;49.7
72124;BME280;63818;37.134;-8.548;2023-11-21T16:49:43;101768.6;;;19.6;51.2
72124;BME280;63818;37.134;-8.548;2023-11-21T16:54:32;101786.6;;;19.5;52.6
72124;BME280;63818;37.134;-8.548;2023-11-21T16:59:30;101796.0;;;19.4;53.2
72124;BME280;63818;37.134;-8.548;2023-11-21T17:04:19;101807.0;;;19.3;53.6
72124;BME280;63818;37.134;-8.548;2023-11-21T17:09:08;101814.1;;;19.3;53.5
72124;BME280;63818;37.134;-8.548;2023-11-21T17:13:57;101822.4;;;19.2;53.7
72124;BME280;63818;37.134;-8.548;2023-11-21T17:18:46;101825.9;;;19.1;54.0
72124;BME280;63818;37.134;-8.548;2023-11-21T17:23:36;101841.1;;;19.0;54.5
72124;BME280;63818;37.134;-8.548;2023-11-21T17:28:26;101851.9;;;18.8;55.2
72124;BME280;63818;37.134;-8.548;2023-11-21T17:33:15;101858.4;;;18.8;55.3
72124;BME280;63818;37.134;-8.548;2023-11-21T17:38:19;101855.4;;;18.7;55.3
72124;BME280;63818;37.134;-8.548;2023-11-21T17:43:07;101865.3;;;18.6;55.7
72124;BME280;63818;37.134;-8.548;2023-11-21T17:47:59;101851.4;;;18.6;56.1
72124;BME280;63818;37.134;-8.548;2023-11-21T17:52:47;101854.1;;;18.5;56.4
72124;BME280;63818;37.134;-8.548;2023-11-21T17:57:35;101857.1;;;18.4;56.4
72124;BME280;63818;37.134;-8.548;2023-11-21T18:02:24;101855.7;;;18.4;56.5
72124;BME280;63818;37.134;-8.548;2023-11-21T18:07:12;101861.0;;;18.3;56.9
72124;BME280;63818;37.134;-8.548;2023-11-21T18:12:02;101861.7;;;18.2;57.2
72124;BME280;63818;37.134;-8.548;2023-11-21T18:16:53;101876.3;;;18.2;57.5
72124;BME280;63818;37.134;-8.548;2023-11-21T18:21:41;101876.2;;;18.1;57.7
72124;BME280;63818;37.134;-8.548;2023-11-21T18:26:29;101868.2;;;18.1;57.4
72124;BME280;63818;37.134;-8.548;2023-11-21T18:31:18;101877.7;;;18.0;57.5
72124;BME280;63818;37.134;-8.548;2023-11-21T18:36:23;101880.4;;;17.9;58.0
72124;BME280;63818;37.134;-8.548;2023-11-21T18:41:11;101880.8;;;17.8;58.2
72124;BME280;63818;37.134;-8.548;2023-11-21T18:46:03;101888.3;;;17.8;58.2
72124;BME280;63818;37.134;-8.548;2023-11-21T18:50:53;101890.1;;;17.8;57.8
72124;BME280;63818;37.134;-8.548;2023-11-21T18:55:41;101890.6;;;17.9;56.0
72124;BME280;63818;37.134;-8.548;2023-11-21T19:00:29;101896.2;;;17.8;56.6
72124;BME280;63818;37.134;-8.548;2023-11-21T19:05:28;101886.6;;;17.8;54.7
72124;BME280;63818;37.134;-8.548;2023-11-21T19:10:16;101894.1;;;17.9;53.8
72124;BME280;63818;37.134;-8.548;2023-11-21T19:15:05;101904.4;;;17.9;53.7
72124;BME280;63818;37.134;-8.548;2023-11-21T19:20:09;101904.6;;;18.0;54.2
72124;BME280;63818;37.134;-8.548;2023-11-21T19:24:58;101911.2;;;17.9;54.8
72124;BME280;63818;37.134;-8.548;2023-11-21T19:29:49;101916.6;;;17.9;54.7
72124;BME280;63818;37.134;-8.548;2023-11-21T19:34:37;101919.9;;;17.8;54.7
72124;BME280;63818;37.134;-8.548;2023-11-21T19:39:32;101916.0;;;17.8;54.7
72124;BME280;63818;37.134;-8.548;2023-11-21T19:44:22;101924.8;;;17.8;55.1
72124;BME280;63818;37.134;-8.548;2023-11-21T19:49:25;101907.0;;;17.7;54.5
72124;BME280;63818;37.134;-8.548;2023-11-21T19:54:14;101906.8;;;17.7;54.2
72124;BME280;63818;37.134;-8.548;2023-11-21T19:59:13;101910.6;;;17.7;53.5
72124;BME280;63818;37.134;-8.548;2023-11-21T20:04:01;101902.6;;;17.8;53.0
72124;BME280;63818;37.134;-8.548;2023-11-21T20:09:02;101902.6;;;17.8;53.2
72124;BME280;63818;37.134;-8.548;2023-11-21T20:13:51;101892.7;;;17.7;53.3
72124;BME280;63818;37.134;-8.548;2023-11-21T20:18:46;101894.0;;;17.6;53.0
72124;BME280;63818;37.134;-8.548;2023-11-21T20:23:34;101899.4;;;17.6;53.1
72124;BME280;63818;37.134;-8.548;2023-11-21T20:28:41;101900.2;;;17.6;53.6
72124;BME280;63818;37.134;-8.548;2023-11-21T20:33:29;101906.9;;;17.6;53.8
72124;BME280;63818;37.134;-8.548;2023-11-21T20:38:19;101919.1;;;17.5;53.9
72124;BME280;63818;37.134;-8.548;2023-11-21T20:43:07;101923.6;;;17.5;54.1
72124;BME280;63818;37.134;-8.548;2023-11-21T20:47:55;101922.3;;;17.5;53.9
72124;BME280;63818;37.134;-8.548;2023-11-21T20:52:44;101929.5;;;17.4;53.7
72124;BME280;63818;37.134;-8.548;2023-11-21T20:57:37;101928.2;;;17.4;53.6
72124;BME280;63818;37.134;-8.548;2023-11-21T21:02:30;101946.9;;;17.4;53.4
72124;BME280;63818;37.134;-8.548;2023-11-21T21:07:18;101944.5;;;17.4;53.6
72124;BME280;63818;37.134;-8.548;2023-11-21T21:12:10;101956.1;;;17.4;53.7
72124;BME280;63818;37.134;-8.548;2023-11-21T21:16:58;101955.3;;;17.4;53.5
72124;BME280;63818;37.134;-8.548;2023-11-21T21:21:57;101951.9;;;17.3;53.2
72124;BME280;63818;37.134;-8.548;2023-11-21T21:26:48;101953.4;;;17.3;53.2
72124;BME280;63818;37.134;-8.548;2023-11-21T21:31:36;101961.9;;;17.3;53.0
72124;BME280;63818;37.134;-8.548;2023-11-21T21:36:31;101976.9;;;17.2;52.7
72124;BME280;63818;37.134;-8.548;2023-11-21T21:41:19;101978.0;;;17.2;52.8
72124;BME280;63818;37.134;-8.548;2023-11-21T21:46:14;101965.9;;;17.2;52.5
72124;BME280;63818;37.134;-8.548;2023-11-21T21:51:15;101967.3;;;17.2;52.4
72124;BME280;63818;37.134;-8.548;2023-11-21T21:56:03;101973.4;;;17.1;52.3
72124;BME280;63818;37.134;-8.548;2023-11-21T22:00:53;101978.1;;;17.2;52.5
72124;BME280;63818;37.134;-8.548;2023-11-21T22:10:35;101986.6;;;17.2;52.5
72124;BME280;63818;37.134;-8.548;2023-11-21T22:15:22;101988.5;;;17.2;52.3
72124;BME280;63818;37.134;-8.548;2023-11-21T22:20:16;101975.6;;;17.1;52.0
72124;BME280;63818;37.134;-8.548;2023-11-21T22:25:04;101979.3;;;17.1;52.2
72124;BME280;63818;37.134;-8.548;2023-11-21T22:29:53;101973.0;;;17.1;52.5
72124;BME280;63818;37.134;-8.548;2023-11-21T22:39:38;101979.3;;;17.0;52.3
72124;BME280;63818;37.134;-8.548;2023-11-21T22:44:28;101976.9;;;17.0;52.3
72124;BME280;63818;37.134;-8.548;2023-11-21T22:49:18;101959.6;;;16.9;52.7
72124;BME280;63818;37.134;-8.548;2023-11-21T22:54:06;101972.7;;;16.8;53.0
72124;BME280;63818;37.134;-8.548;2023-11-21T22:58:56;101963.9;;;16.8;52.9
72124;BME280;63818;37.134;-8.548;2023-11-21T23:03:47;101951.8;;;16.8;52.9
72124;BME280;63818;37.134;-8.548;2023-11-21T23:08:34;101941.7;;;16.8;53.0
72124;BME280;63818;37.134;-8.548;2023-11-21T23:13:22;101936.6;;;16.7;52.6
72124;BME280;63818;37.134;-8.548;2023-11-21T23:18:13;101942.0;;;16.7;52.8
72124;BME280;63818;37.134;-8.548;2023-11-21T23:23:01;101941.1;;;16.7;52.8
72124;BME280;63818;37.134;-8.548;2023-11-21T23:27:54;101938.1;;;16.7;52.6
72124;BME280;63818;37.134;-8.548;2023-11-21T23:32:42;101916.4;;;16.7;51.9
72124;BME280;63818;37.134;-8.548;2023-11-21T23:37:30;101908.7;;;16.6;52.1
72124;BME280;63818;37.134;-8.548;2023-11-21T23:42:26;101915.9;;;16.6;52.0
72124;BME280;63818;37.134;-8.548;2023-11-21T23:47:14;101906.1;;;16.6;51.9
72124;BME280;63818;37.134;-8.548;2023-11-21T23:52:02;101911.8;;;16.6;51.3
72124;BME280;63818;37.134;-8.548;2023-11-21T23:56:54;101906.3;;;16.5;51.4
